ADDS METAR Data INFO
IDs: Format: Raw Decoded Include TAF

Data at: 0254 UTC 21 Jan 2018

KPGA 210153Z AUTO 27011G19KT 10SM BKN090 05/M03 A2977 RMK AO2 SLP062 T00501033 TSNO
KPGA 210053Z AUTO 31010G18KT 10SM BKN095 06/M02 A2975 RMK AO2 SLP056 T00611022 TSNO
KPGA 202353Z AUTO 28011G17KT 10SM SCT085 07/M01 A2973 RMK AO2 SLP045 T00721011 10111 20072 53006 TSNO
KPGA 202253Z AUTO 20011G19KT 10SM CLR 11/M05 A2970 RMK AO2 SLP030 T01061050 TSNO
KPGA 202153Z AUTO 21007KT 10SM CLR 11/M02 A2971 RMK AO2 SLP030 T01061022 TSNO
KPGA 202053Z AUTO 22008G19KT 10SM FEW070 OVC090 10/M01 A2971 RMK AO2 SLP034 T01001011 58010 TSNO
KPGA 201953Z AUTO 22010G18KT 10SM OVC090 10/M02 A2972 RMK AO2 SLP036 T01001022 TSNO
KPGA 201853Z AUTO 21013G24KT 10SM SCT085 11/M01 A2974 RMK AO2 PK WND 20028/1755 SLP041 T01061006 TSNO
KPGA 201753Z AUTO 19012G21KT 10SM FEW120 11/01 A2975 RMK AO2 SLP046 T01060006 10117 20083 52003 TSNO
KPGA 201653Z AUTO 21008G14KT 10SM SCT055 BKN110 12/00 A2974 RMK AO2 SLP045 T01170000 TSNO
KPGA 201553Z AUTO 00000KT 10SM OVC060 11/M03 A2974 RMK AO2 SLP044 T01061028 TSNO
KPGA 201453Z AUTO 22008KT 10SM OVC070 10/M01 A2973 RMK AO2 SLP044 T01001006 55003 TSNO
KPGA 201353Z AUTO 20006KT 10SM OVC065 10/M05 A2973 RMK AO2 SLP043 T01001050 TSNO
KPGA 201253Z AUTO 15009KT 10SM BKN090 BKN120 09/M05 A2974 RMK AO2 SLP046 T00891050 TSNO
KPGA 201153Z AUTO 16008KT 10SM SCT110 10/M04 A2974 RMK AO2 SLP042 T01001039 10117 20078 58021 TSNO
KPGA 201053Z AUTO 18008KT 10SM CLR 10/M04 A2977 RMK AO2 SLP049 T01001039 TSNO
KPGA 200953Z AUTO 19006KT 10SM OVC095 12/M04 A2979 RMK AO2 SLP056 T01171039 TSNO
KPGA 200853Z AUTO 17005KT 10SM FEW090 10/M04 A2981 RMK AO2 SLP068 T01001044 58008 TSNO
KPGA 200753Z AUTO 22006KT 10SM CLR 11/M04 A2982 RMK AO2 SLP072 T01111044 TSNO
KPGA 200653Z AUTO VRB05KT 10SM CLR 12/M04 A2983 RMK AO2 SLP077 T01171039 401330011 TSNO
KPGA 200553Z AUTO 00000KT 10SM CLR 09/M04 A2984 RMK AO2 SLP086 T00891039 10122 20078 58001 TSNO
KPGA 200453Z AUTO 24003KT 6SM HZ CLR 08/M04 A2984 RMK AO2 SLP092 T00781044 TSNO
KPGA 200353Z AUTO 00000KT 10SM CLR 08/M04 A2984 RMK AO2 SLP095 T00781039 TSNO
KPGA 200318Z AUTO 00000KT 4SM HZ CLR 08/M04 A2984 RMK AO2 T00831039 TSNO
KPGA 200310Z AUTO 00000KT 2 1/2SM HZ CLR 08/M04 A2984 RMK AO2 VIS 1 3/4V3 T00781039 TSNO
KPGA 200253Z AUTO 00000KT 10SM CLR 08/M04 A2984 RMK AO2 SLP097 T00831044 56007 TSNO
KPGA 200153Z AUTO 23004KT 10SM CLR 09/M04 A2985 RMK AO2 SLP099 T00891044 TSNO
KPGA 200053Z AUTO 00000KT 10SM CLR 10/M04 A2986 RMK AO2 SLP098 T01001044 TSNO
KPGA 192353Z AUTO 00000KT 10SM CLR 12/M05 A2987 RMK AO2 SLP098 T01221050 10133 20067 56019 TSNO
KPGA 192253Z AUTO 07003KT 10SM CLR 13/M05 A2988 RMK AO2 SLP099 T01281050 TSNO
KPGA 192153Z AUTO 04003KT 10SM CLR 12/M05 A2990 RMK AO2 SLP107 T01221050 TSNO
KPGA 192053Z AUTO VRB04KT 10SM CLR 11/M04 A2993 RMK AO2 SLP121 T01061039 58036 TSNO
KPGA 191953Z AUTO 01003KT 10SM CLR 09/M04 A2997 RMK AO2 SLP136 T00941039 TSNO
KPGA 191853Z AUTO 36005KT 10SM CLR 08/M03 A3002 RMK AO2 SLP154 T00831033 TSNO
KPGA 191753Z AUTO 34003KT 10SM CLR 07/M03 A3005 RMK AO2 SLP166 T00671033 10067 20011 58003 TSNO
KPGA 191653Z AUTO 00000KT 10SM CLR 06/M04 A3006 RMK AO2 SLP172 T00561039 TSNO
KPGA 191553Z AUTO 00000KT 10SM CLR 03/M04 A3007 RMK AO2 SLP176 T00331039 TSNO